Main page
METAR-TAF:

METAR-TAF

Airports :

Current weather observation

The report was made 8 minutes ago, at 18:00 UTC
Wind 4 kt from the Northeast
Temperature 7°C
Humidity 76%
Pressure 1030 hPa
Visibility 10 km or more
Clear sky

METAR: LBIA 251800Z 05004KT 9999 SKC 07/03 Q1030

Time: 18:08 (18:08 UTC)


TAF: missing

Weather observations and forecasts of more than 4000 airports (METAR and TAF reports).

The available stations are represented by yellow and red dots on the map.

Hover mouse over dot to see the name of the station.

Then click to see weather observations and forecasts.

To change the map : click on the green buttons with a black cross to zoom in, on the green button with a dash to zoom out, or on the green arrows for adjacent maps.


METAR-TAF: